Lincoln, NE
5/6/2007


DISTANCE 26.2 MILES
FINISHERS 1075 (712 men, 363 women)
AVERAGE TIME 4:09:46

FIND RESULTS


Bib Name Sex Age City State Overall AG Place AG % AG Time
8 Chris Kimbrough F 37 Austin TX 10 / 1075 1 / 1075 83.2% 2:42:33
2192 Ray Workman M 57 Salt Lake City UT 27 / 1075 2 / 1075 83.2% 2:27:36
217 Bryce Dickmeyer M 22 Lincoln NE 1 / 1075 3 / 1075 81.5% 2:30:45
1105 Shannon Stenger M 28 Papillion NE 2 / 1075 4 / 1075 80.1% 2:33:17
2195 Mike Zeigle M 55 Sun Prairie WI 44 / 1075 5 / 1075 79.8% 2:33:56
2023 James Bresette M 46 Clinton AR 11 / 1075 6 / 1075 79.7% 2:33:58
292 Toby Franks M 25 Boulder CO 3 / 1075 7 / 1075 78.5% 2:36:28
2 Gannon White M 31 Greeley CO 4 / 1075 8 / 1075 78.0% 2:37:26
309 Todd Fuelberth M 33 Omaha NE 5 / 1075 9 / 1075 77.9% 2:37:34
2070 Troy Harrison M 31 Hustontown PA 6 / 1075 10 / 1075 77.8% 2:37:50
1 Christy Nielsen F 31 Omaha NE 23 / 1075 11 / 1075 77.6% 2:54:19
2042 Victor Cuevas-Cardona M 53 Las Marias PR 60 / 1075 12 / 1075 76.8% 2:39:56
875 Ken Snyder M 53 Lincoln NE 66 / 1075 13 / 1075 76.2% 2:41:05
9 Jacob Kaemmer M 30 Des Moines IA 7 / 1075 14 / 1075 76.2% 2:41:14
3 Jeremy Davis M 27 Ames IA 8 / 1075 15 / 1075 76.0% 2:41:34
6 Marla Rhoden F 51 Topeka KS 148 / 1075 16 / 1075 75.8% 2:58:18
396 Beth Henriksen F 51 Ames IA 149 / 1075 17 / 1075 75.7% 2:58:40
2026 William Bohlke M 28 St. Croix 9 / 1075 18 / 1075 75.1% 2:43:34
2198 Walter Bird M 49 Marcellus NY 52 / 1075 19 / 1075 74.8% 2:44:12
2087 Bill Kaemmer M 48 Hillsboro OR 50 / 1075 20 / 1075 74.2% 2:45:27
376 Charlotte Hartwig F 60 Salem OR 419 / 1075 21 / 1075 74.2% 3:02:17
7 Michael Wilson M 34 Lincoln NE 12 / 1075 22 / 1075 74.1% 2:45:38
2147 William Raitter M 37 Twain Harte CA 13 / 1075 23 / 1075 74.1% 2:45:39
2156 Robert Schnell M 35 Tucson AZ 14 / 1075 24 / 1075 73.4% 2:47:20
2180 Timothy Vandervlugt M 42 La Grande OR 25 / 1075 25 / 1075 73.2% 2:47:46
2029 Curt Carey M 43 Spencer IN 32 / 1075 26 / 1075 73.2% 2:47:50
2118 Whit Miller M 38 Fishers IN 16 / 1075 27 / 1075 73.1% 2:47:53
688 Todd Nott M 43 Plattsmouth NE 34 / 1075 28 / 1075 73.1% 2:48:02
53 Dewey Barsaloux M 49 Clayton MO 68 / 1075 29 / 1075 72.9% 2:48:23
940 Julie Thornton F 24 Manhattan KS 67 / 1075 30 / 1075 72.8% 3:05:38
778 Brad Rhoden M 54 Topeka KS 100 / 1075 31 / 1075 72.6% 2:49:10
2031 Matthew Cavanaugh M 27 Woodbury MN 15 / 1075 32 / 1075 72.5% 2:49:25
2162 Trent Sinnett M 45 Homewood IL 51 / 1075 33 / 1075 72.3% 2:49:48
2047 Rick Downs M 45 Temple TX 56 / 1075 34 / 1075 72.0% 2:50:28
2015 David Bice M 34 Lawrenceburg KY 19 / 1075 35 / 1075 72.0% 2:50:38
2100 Christopher Larson M 33 Honolulu HI 17 / 1075 36 / 1075 71.9% 2:50:46
1090 Yukiko Nishide F 45 Rye NY 132 / 1075 37 / 1075 71.8% 3:08:23
2183 Michael Western M 28 Waverly IA 18 / 1075 38 / 1075 71.8% 2:51:03
2133 Jeff Olive M 39 Peachtree City GA 26 / 1075 39 / 1075 71.6% 2:51:30
2138 Eric Petersen M 41 Holladay UT 38 / 1075 40 / 1075 71.6% 2:51:30
985 Wesley Watkins M 35 Chillicothe MO 20 / 1075 41 / 1075 71.1% 2:52:42
990 Kjersten Welch F 36 Sioux City IA 84 / 1075 42 / 1075 71.1% 3:10:13
2085 Thomas Jackson M 38 O'Fallon IL 29 / 1075 43 / 1075 71.1% 2:52:43
2007 Varinka Barbini F 26 Lexington KY 74 / 1075 44 / 1075 70.9% 3:10:50
1025 Conrad Woerner M 55 Lincoln NE 135 / 1075 45 / 1075 70.7% 2:53:33
421 Carl Hoogesteger M 26 Omaha NE 21 / 1075 46 / 1075 70.6% 2:53:51
2048 Chase Duarte M 39 Vail AZ 41 / 1075 47 / 1075 70.6% 2:53:54
2014 Michael Bergquist M 34 Medical Lake WA 24 / 1075 48 / 1075 70.6% 2:53:58
157 Steven Chorma M 36 O'Fallon IL 28 / 1075 49 / 1075 70.5% 2:54:02
651 Jason Moritz M 29 Lincoln NE 22 / 1075 50 / 1075 70.5% 2:54:07
1-50    51-100→
Per Page: [50] [100] [500]